createdAt,value
2022-08-10T00:00:51.571Z,4.37
2022-08-10T00:05:56.505Z,2.60
2022-08-10T00:10:58.335Z,3.60
2022-08-10T00:16:00.030Z,4.20
2022-08-10T00:21:01.702Z,8.50
2022-08-10T00:26:04.027Z,9.47
2022-08-10T00:31:05.831Z,4.77
2022-08-10T00:36:07.723Z,5.20
2022-08-10T00:41:09.447Z,3.80
2022-08-10T00:46:11.143Z,9.23
2022-08-10T00:51:12.819Z,3.20
2022-08-10T00:57:12.769Z,5.93
2022-08-10T01:02:08.539Z,4.30
2022-08-10T01:07:26.621Z,4.20
2022-08-10T01:12:50.346Z,7.23
2022-08-10T01:18:00.892Z,4.97
2022-08-10T01:23:21.244Z,3.67
2022-08-10T01:28:29.165Z,7.50
2022-08-10T01:34:02.465Z,6.67
2022-08-10T01:39:04.324Z,4.83
2022-08-10T01:44:11.406Z,4.00
2022-08-10T01:49:14.178Z,4.20
2022-08-10T01:54:19.889Z,4.73
2022-08-10T01:59:23.748Z,5.97
2022-08-10T02:04:26.022Z,5.53
2022-08-10T02:09:32.782Z,3.97
2022-08-10T02:14:40.813Z,6.83
2022-08-10T02:19:43.177Z,11.70
2022-08-10T02:24:44.865Z,3.93
2022-08-10T02:29:49.046Z,6.80
2022-08-10T02:34:51.235Z,9.83
2022-08-10T02:39:53.427Z,7.43
2022-08-10T02:45:23.630Z,5.20
2022-08-10T02:50:32.862Z,8.90
2022-08-10T02:55:42.579Z,8.90
2022-08-10T03:00:47.224Z,13.53
2022-08-10T03:05:50.973Z,6.27
2022-08-10T03:10:52.687Z,4.30
2022-08-10T03:15:54.413Z,6.30
2022-08-10T03:20:56.166Z,6.83
2022-08-10T03:25:57.970Z,4.23
2022-08-10T03:31:00.259Z,6.07
2022-08-10T03:36:40.265Z,9.90
2022-08-10T03:41:36.665Z,6.57
2022-08-10T03:46:40.587Z,4.83
2022-08-10T03:51:42.289Z,5.70
2022-08-10T03:56:44.113Z,9.40
2022-08-10T04:02:52.879Z,4.17
2022-08-10T04:07:07.693Z,4.90
2022-08-10T04:12:09.428Z,8.90
2022-08-10T04:17:14.068Z,5.47
2022-08-10T04:22:20.396Z,5.77
2022-08-10T04:27:22.064Z,6.20
2022-08-10T04:32:24.044Z,8.17
2022-08-10T04:37:25.772Z,6.27
2022-08-10T04:42:27.438Z,5.07
2022-08-10T04:47:57.896Z,6.80
2022-08-10T04:52:51.231Z,5.20
2022-08-10T04:57:53.010Z,6.77
2022-08-10T05:02:54.699Z,9.00
2022-08-10T05:07:57.067Z,5.37
2022-08-10T05:12:58.864Z,5.97
2022-08-10T05:18:06.801Z,9.20
2022-08-10T05:23:11.701Z,6.67
2022-08-10T05:28:13.383Z,5.90
2022-08-10T05:33:15.072Z,5.77
2022-08-10T05:38:17.042Z,6.10
2022-08-10T05:43:20.037Z,8.17
2022-08-10T05:48:41.894Z,10.93
2022-08-10T05:54:03.615Z,6.90
2022-08-10T05:59:05.289Z,11.23
2022-08-10T06:04:06.981Z,6.50
2022-08-10T06:09:08.703Z,7.47
2022-08-10T06:14:29.210Z,7.07
2022-08-10T06:19:31.058Z,6.03
2022-08-10T06:24:36.269Z,10.43
2022-08-10T06:29:38.052Z,7.33
2022-08-10T06:34:41.789Z,6.83
2022-08-10T06:39:44.344Z,5.57
2022-08-10T06:45:04.632Z,7.93
2022-08-10T06:50:10.829Z,8.13
2022-08-10T06:55:16.775Z,6.70
2022-08-10T07:00:20.530Z,11.90
2022-08-10T07:05:27.092Z,8.77
2022-08-10T07:10:46.080Z,6.70
2022-08-10T07:15:59.186Z,9.43
2022-08-10T07:21:02.221Z,7.50
2022-08-10T07:26:03.996Z,6.43
2022-08-10T07:31:35.413Z,5.33
2022-08-10T07:36:27.452Z,8.50
2022-08-10T07:41:31.889Z,6.27
2022-08-10T07:46:33.721Z,7.20
2022-08-10T08:24:04.976Z,5.60
2022-08-10T08:26:37.963Z,4.83
2022-08-10T08:32:01.073Z,11.80
2022-08-10T08:37:01.645Z,3.93
2022-08-10T08:42:35.553Z,5.70
2022-08-10T08:48:04.720Z,9.20
2022-08-10T08:53:22.961Z,5.67
2022-08-10T08:58:58.464Z,6.70
2022-08-10T09:04:34.069Z,7.83
2022-08-10T09:09:38.334Z,5.47
2022-08-10T09:15:40.880Z,4.80
2022-08-10T09:20:48.229Z,6.17
2022-08-10T09:26:07.931Z,5.93
2022-08-10T09:31:21.948Z,4.80
2022-08-10T09:37:04.152Z,9.10
2022-08-10T09:42:16.019Z,6.07
2022-08-10T09:47:58.566Z,5.00
2022-08-10T09:53:04.978Z,12.43
2022-08-10T09:58:15.327Z,9.37
2022-08-10T10:03:25.982Z,6.87
2022-08-10T10:08:36.437Z,5.47
2022-08-10T10:14:02.545Z,3.43
2022-08-10T10:19:25.749Z,4.13
2022-08-10T10:24:43.145Z,5.43
2022-08-10T10:30:06.218Z,6.47
2022-08-10T10:35:29.142Z,5.33
2022-08-10T10:41:07.104Z,9.13
2022-08-10T10:46:16.239Z,12.90
2022-08-10T10:51:53.735Z,4.20
2022-08-10T10:57:17.407Z,8.57
2022-08-10T11:02:32.474Z,3.80
2022-08-10T11:07:36.181Z,6.20
2022-08-10T11:12:57.676Z,4.43
2022-08-10T11:18:36.469Z,6.20
2022-08-10T11:24:48.749Z,6.47
2022-08-10T11:29:35.194Z,6.37
2022-08-10T11:35:34.626Z,5.73
2022-08-10T11:40:43.334Z,6.70
2022-08-10T11:45:52.128Z,3.33
2022-08-10T11:51:01.421Z,7.40
2022-08-10T11:56:03.608Z,4.50
2022-08-10T12:01:13.509Z,13.53
2022-08-10T12:06:28.933Z,8.10
2022-08-10T12:11:35.658Z,10.50
2022-08-10T12:16:39.678Z,4.57
2022-08-10T12:21:45.445Z,2.43
2022-08-10T12:27:00.396Z,12.45
2022-08-10T12:32:11.210Z,3.03
2022-08-10T12:37:33.440Z,6.43
2022-08-10T12:42:43.232Z,13.10
2022-08-10T12:48:31.366Z,9.10
2022-08-10T12:53:51.929Z,4.60
2022-08-10T12:59:00.248Z,20.30
2022-08-10T13:04:22.711Z,2.13
2022-08-10T13:09:25.942Z,26.50
2022-08-10T13:14:56.950Z,6.57
2022-08-10T13:20:08.185Z,3.88
2022-08-10T13:25:16.665Z,5.88
2022-08-10T13:30:37.581Z,3.45
2022-08-10T13:35:40.156Z,7.80
2022-08-10T13:40:41.997Z,6.10
2022-08-10T13:45:49.251Z,2.00
2022-08-10T13:50:52.690Z,4.82
2022-08-10T13:55:56.924Z,5.30
2022-08-10T14:01:00.124Z,8.38
2022-08-10T14:06:01.991Z,14.52
2022-08-10T14:11:10.851Z,5.82
2022-08-10T14:16:14.132Z,3.58
2022-08-10T14:21:16.146Z,10.00
2022-08-10T14:26:26.371Z,7.90
2022-08-10T14:31:33.763Z,7.18
2022-08-10T14:36:56.353Z,9.57
2022-08-10T14:42:00.868Z,4.68
2022-08-10T14:47:52.275Z,3.58
2022-08-10T14:52:30.632Z,3.90
2022-08-10T14:58:19.868Z,13.25
2022-08-10T15:02:57.980Z,2.55
2022-08-10T15:08:00.159Z,23.33
2022-08-10T15:13:03.577Z,29.40
2022-08-10T15:18:06.721Z,6.55
2022-08-10T15:23:30.517Z,7.55
2022-08-10T15:29:22.912Z,5.18
2022-08-10T15:34:14.072Z,4.85
2022-08-10T15:40:21.919Z,5.65
2022-08-10T15:44:41.617Z,3.90
2022-08-10T15:50:03.572Z,7.13
2022-08-10T15:55:43.778Z,7.38
2022-08-10T16:00:39.766Z,7.38
2022-08-10T16:06:02.052Z,2.17
2022-08-10T16:11:05.781Z,5.63
2022-08-10T16:16:11.415Z,6.13
2022-08-10T16:21:19.054Z,5.95
2022-08-10T16:26:28.203Z,3.85
2022-08-10T16:31:33.873Z,4.45
2022-08-10T16:36:42.182Z,2.42
2022-08-10T16:42:03.017Z,3.50
2022-08-10T16:47:06.883Z,1.33
2022-08-10T16:52:08.584Z,2.78
2022-08-10T16:57:10.317Z,2.33
2022-08-10T17:02:16.093Z,2.97
2022-08-10T17:07:18.606Z,6.15
2022-08-10T17:12:24.239Z,3.53
2022-08-10T17:17:30.787Z,3.75
2022-08-10T17:22:36.212Z,3.92
2022-08-10T17:28:03.922Z,4.93
2022-08-10T17:33:11.069Z,3.83
2022-08-10T17:38:20.992Z,2.92
2022-08-10T17:43:58.324Z,3.17
2022-08-10T17:48:45.956Z,4.60
2022-08-10T17:53:49.689Z,1.60
2022-08-10T17:59:01.128Z,5.85
2022-08-10T18:04:05.256Z,7.38
2022-08-10T18:09:11.409Z,2.75
2022-08-10T18:14:13.173Z,4.47
2022-08-10T18:19:14.888Z,4.63
2022-08-10T18:24:17.772Z,4.23
2022-08-10T18:29:21.979Z,7.70
2022-08-10T18:34:23.773Z,1.93
2022-08-10T18:39:30.029Z,5.97
2022-08-10T18:44:35.535Z,3.33
2022-08-10T18:49:37.034Z,5.30
2022-08-10T18:54:44.916Z,1.90
2022-08-10T19:00:08.852Z,3.10
2022-08-10T19:05:36.826Z,10.73
2022-08-10T19:11:02.095Z,4.17
2022-08-10T19:16:10.505Z,7.47
2022-08-10T19:21:19.244Z,3.00
2022-08-10T19:26:42.502Z,4.83
2022-08-10T19:32:40.520Z,2.80
2022-08-10T19:38:14.727Z,14.93
2022-08-10T19:43:59.283Z,6.93
2022-08-10T19:49:19.375Z,8.60
2022-08-10T19:54:53.102Z,8.60
2022-08-10T20:00:17.049Z,9.00
2022-08-10T20:05:33.351Z,3.77
2022-08-10T20:10:57.118Z,7.10
2022-08-10T20:16:02.892Z,12.23
2022-08-10T20:21:14.818Z,6.97
2022-08-10T20:26:23.276Z,9.53
2022-08-10T20:31:29.452Z,8.13
2022-08-10T20:36:33.055Z,5.27
2022-08-10T20:42:03.581Z,8.57
2022-08-10T20:47:24.928Z,9.00
2022-08-10T20:52:26.709Z,6.17
2022-08-10T20:58:04.789Z,4.87
2022-08-10T21:03:31.744Z,9.53
2022-08-10T21:08:59.764Z,7.63
2022-08-10T21:14:13.555Z,4.10
2022-08-10T21:19:30.472Z,4.00
2022-08-10T21:24:55.676Z,5.10
2022-08-10T21:30:09.207Z,3.20
2022-08-10T21:35:40.173Z,4.53
2022-08-10T21:41:19.094Z,6.23
2022-08-10T21:46:58.784Z,11.10
2022-08-10T21:52:32.730Z,23.60
2022-08-10T21:58:27.433Z,28.37
2022-08-10T22:03:47.970Z,39.47
2022-08-10T22:09:18.183Z,41.57
2022-08-10T22:14:52.682Z,41.30
2022-08-10T22:20:24.778Z,39.90
2022-08-10T22:26:26.743Z,23.00
2022-08-10T22:32:16.082Z,32.83
2022-08-10T22:38:07.971Z,64.63
2022-08-10T22:43:36.900Z,85.70
2022-08-10T22:49:01.962Z,28.63
2022-08-10T22:54:52.637Z,14.17
2022-08-10T22:59:54.301Z,10.20
2022-08-10T23:04:58.785Z,13.30
2022-08-10T23:10:03.561Z,13.70
2022-08-10T23:15:25.395Z,13.83
2022-08-10T23:20:27.159Z,17.80
2022-08-10T23:25:31.907Z,15.03
2022-08-10T23:30:36.743Z,17.90
2022-08-10T23:36:31.080Z,20.43
2022-08-10T23:41:11.706Z,18.97
2022-08-10T23:46:13.421Z,18.73
2022-08-10T23:51:16.317Z,8.30
2022-08-10T23:56:20.440Z,9.47
